Southfield, Michigan
Current Conditions -  °F | °C
As of 4:34 AM on Saturday 20 Dec 2014 (Local Time) from KVLL Reporting Station
Scattered Clouds Scattered Clouds  
Wind Chill: 25°   Ceiling: Unl
Heat Index: 25°   Visibility: 10mi
Dew Point: 20°   Wind: 0mph
Humidity: 84%   Direction: NA
Pressure: 30.3"   Gusts: NA
Location:  42.48°N, 83.24°W
Report Text: KVLL 200934Z AUTO 00000KT 10SM SCT027 M04/M06 A3030 RMK AO2 T10411065
Loading
Personal Weather Stations






























Interactive Weather Map New forecast layout! Learn more

10-Day Weather Forecast

Advertisements
Track Severe Weather on mobile